Time;durP1;ratioP1;P1;durP2;ratioP2;P2;SDS_P1;SDS_P2;PMS_P1;PMS_P2;Temp;Humidity;BMP_temperature;BMP_pressure;BME280_temperature;BME280_humidity;BME280_pressure;Samples;Min_cycle;Max_cycle;Signal;HPM_P1;HPM_P2
2022/04/10 00:01:56;;;;;;;16.52;2.42;;;3.30;99.90;;;;;;5052537;28;20482;-54
2022/04/10 00:04:23;;;;;;;18.27;3.03;;;3.30;99.90;;;;;;5060552;28;20504;-53
2022/04/10 00:06:48;;;;;;;14.52;2.10;;;3.20;99.90;;;;;;5072641;28;20442;-52
2022/04/10 00:09:14;;;;;;;13.73;2.58;;;3.10;99.90;;;;;;5071131;28;20152;-53
2022/04/10 00:11:40;;;;;;;13.30;2.60;;;3.00;99.90;;;;;;5072299;28;20041;-52
2022/04/10 00:14:06;;;;;;;10.75;2.67;;;3.10;99.90;;;;;;5071288;28;20373;-52
2022/04/10 00:16:32;;;;;;;17.00;2.95;;;3.20;99.90;;;;;;5072291;28;20047;-53
2022/04/10 00:19:04;;;;;;;13.35;2.50;;;3.20;99.90;;;;;;5072193;28;20546;-54
2022/04/10 00:21:31;;;;;;;18.05;2.88;;;3.20;99.90;;;;;;5071711;28;20177;-50
2022/04/10 00:23:57;;;;;;;14.52;2.85;;;3.20;99.90;;;;;;5061374;28;20452;-54
2022/04/10 00:26:23;;;;;;;13.30;2.72;;;3.20;99.90;;;;;;5052105;28;20056;-51
2022/04/10 00:28:50;;;;;;;13.88;3.10;;;3.20;99.90;;;;;;5052182;28;20045;-50
2022/04/10 00:31:16;;;;;;;17.48;2.90;;;3.30;99.90;;;;;;5052056;28;20068;-50
2022/04/10 00:33:42;;;;;;;12.77;2.47;;;3.30;99.90;;;;;;5052310;28;20068;-50
2022/04/10 00:36:08;;;;;;;10.57;2.22;;;3.40;99.90;;;;;;5052140;28;20102;-50
2022/04/10 00:38:34;;;;;;;11.93;2.58;;;3.50;99.90;;;;;;5052142;28;20045;-50
2022/04/10 00:40:59;;;;;;;15.43;2.17;;;3.40;99.90;;;;;;5052029;28;20116;-54
2022/04/10 00:43:30;;;;;;;10.20;2.75;;;3.40;99.90;;;;;;5051853;28;20048;-53
2022/04/10 00:45:57;;;;;;;12.60;1.85;;;3.30;99.90;;;;;;5052184;28;20397;-51
2022/04/10 00:48:23;;;;;;;11.48;3.05;;;3.20;99.90;;;;;;5051904;28;20239;-50
2022/04/10 00:53:34;;;;;;;12.07;2.38;;;3.10;99.90;;;;;;5051983;28;20393;-52
2022/04/10 00:56:00;;;;;;;11.60;2.22;;;3.10;99.90;;;;;;5051780;28;20041;-50
2022/04/10 00:58:27;;;;;;;8.32;2.08;;;3.00;99.90;;;;;;5050497;28;20072;-50
2022/04/10 01:00:53;;;;;;;12.02;1.95;;;3.00;99.90;;;;;;5051959;28;20124;-50
2022/04/10 01:03:19;;;;;;;17.23;2.45;;;3.10;99.90;;;;;;5051710;28;20048;-50
2022/04/10 01:05:47;;;;;;;13.32;2.38;;;3.00;99.90;;;;;;5071395;28;20093;-50
2022/04/10 01:08:13;;;;;;;13.30;2.63;;;3.10;99.90;;;;;;5071792;28;20446;-52
2022/04/10 01:10:38;;;;;;;12.18;2.35;;;3.10;99.90;;;;;;5070410;28;20093;-50
2022/04/10 01:13:05;;;;;;;11.82;2.03;;;3.00;99.90;;;;;;5071627;28;20044;-50
2022/04/10 01:15:31;;;;;;;13.80;2.20;;;3.10;99.90;;;;;;5071653;28;20476;-49
2022/04/10 01:17:56;;;;;;;13.57;2.42;;;3.00;99.90;;;;;;5071486;28;20221;-50
2022/04/10 01:20:23;;;;;;;13.23;2.42;;;2.90;99.90;;;;;;5070512;28;20055;-50
2022/04/10 01:22:49;;;;;;;14.05;2.30;;;2.90;99.90;;;;;;5069896;28;20043;-50
2022/04/10 01:25:15;;;;;;;14.50;3.15;;;2.90;99.90;;;;;;5051558;28;20516;-50
2022/04/10 01:27:41;;;;;;;17.08;2.45;;;2.90;99.90;;;;;;5066708;28;20081;-50
2022/04/10 01:30:09;;;;;;;16.15;3.72;;;3.00;99.90;;;;;;5067131;28;20365;-50
2022/04/10 01:32:35;;;;;;;14.57;3.00;;;2.80;99.90;;;;;;5051607;28;20449;-50
2022/04/10 01:35:02;;;;;;;12.63;2.50;;;2.90;99.90;;;;;;5055336;28;20485;-49
2022/04/10 01:37:31;;;;;;;10.38;2.08;;;2.80;99.90;;;;;;5055308;28;20051;-50
2022/04/10 01:39:57;;;;;;;15.75;2.92;;;2.80;99.90;;;;;;5055218;28;20390;-50
2022/04/10 01:42:23;;;;;;;15.60;3.42;;;2.80;99.90;;;;;;5055114;28;20067;-50
2022/04/10 01:44:49;;;;;;;19.38;3.13;;;2.80;99.90;;;;;;5055206;28;20048;-51
2022/04/10 01:47:14;;;;;;;14.57;2.55;;;2.80;99.90;;;;;;5053863;28;20040;-54
2022/04/10 01:49:40;;;;;;;15.75;2.88;;;2.70;99.90;;;;;;5055107;28;20045;-53
2022/04/10 01:52:06;;;;;;;16.35;2.63;;;2.70;99.90;;;;;;5070383;28;20424;-52
2022/04/10 01:54:32;;;;;;;15.98;2.80;;;2.60;99.90;;;;;;5054971;28;20116;-55
2022/04/10 01:56:58;;;;;;;14.32;2.40;;;2.70;99.90;;;;;;5054968;28;20464;-51
2022/04/10 01:59:24;;;;;;;11.57;2.40;;;2.60;99.90;;;;;;5054874;28;20048;-53
2022/04/10 02:01:49;;;;;;;14.23;2.85;;;2.70;99.90;;;;;;5054979;28;20041;-54
2022/04/10 02:04:17;;;;;;;24.38;3.15;;;2.60;99.90;;;;;;5062052;28;20406;-53
2022/04/10 02:06:42;;;;;;;15.18;2.63;;;2.50;99.90;;;;;;5073643;28;20119;-51
2022/04/10 02:09:08;;;;;;;11.55;2.30;;;2.60;99.90;;;;;;5074628;28;20116;-51
2022/04/10 02:11:34;;;;;;;10.18;2.15;;;2.50;99.90;;;;;;5074532;28;20115;-50
2022/04/10 02:14:00;;;;;;;11.82;2.25;;;2.50;99.90;;;;;;5074530;28;20036;-53
2022/04/10 02:16:25;;;;;;;13.93;2.30;;;2.40;99.90;;;;;;5074430;28;20097;-53
2022/04/10 02:18:51;;;;;;;12.30;2.60;;;2.40;99.90;;;;;;5074613;28;20087;-50
2022/04/10 02:21:17;;;;;;;11.52;2.40;;;2.40;99.90;;;;;;5074608;28;20392;-50
2022/04/10 02:23:44;;;;;;;17.00;2.50;;;2.50;99.90;;;;;;5065222;28;20052;-50
2022/04/10 02:26:12;;;;;;;10.85;2.25;;;2.40;99.90;;;;;;5054558;28;20049;-50
2022/04/10 02:28:39;;;;;;;10.38;2.00;;;2.50;99.90;;;;;;5054169;28;20053;-51
2022/04/10 02:31:05;;;;;;;7.30;1.73;;;2.50;99.90;;;;;;5054387;28;20048;-50
2022/04/10 02:33:33;;;;;;;12.88;2.15;;;2.60;99.90;;;;;;5069686;28;20045;-50
2022/04/10 02:35:59;;;;;;;10.15;1.73;;;2.60;99.90;;;;;;5054130;28;20045;-50
2022/04/10 02:38:25;;;;;;;13.32;3.05;;;2.70;99.90;;;;;;5054086;28;20041;-49
2022/04/10 02:40:51;;;;;;;25.95;4.70;;;2.70;99.90;;;;;;5054248;28;20044;-52
2022/04/10 02:43:17;;;;;;;10.45;1.92;;;2.70;99.90;;;;;;5054056;28;20108;-52
2022/04/10 02:45:43;;;;;;;10.15;2.42;;;2.70;99.90;;;;;;5068584;28;20048;-51
2022/04/10 02:48:09;;;;;;;9.95;1.63;;;2.70;99.90;;;;;;5053988;28;20423;-51
2022/04/10 02:50:36;;;;;;;13.27;2.60;;;2.70;99.90;;;;;;5052555;28;20041;-51
2022/04/10 02:53:02;;;;;;;12.43;2.30;;;2.50;99.90;;;;;;5053850;28;20037;-50
2022/04/10 02:55:28;;;;;;;12.65;3.65;;;2.60;99.90;;;;;;5054097;28;20548;-51
2022/04/10 02:57:54;;;;;;;11.30;1.80;;;2.50;99.90;;;;;;5053834;28;20374;-51
2022/04/10 03:00:20;;;;;;;10.23;2.15;;;2.50;99.90;;;;;;5053873;28;20044;-50
2022/04/10 03:02:46;;;;;;;9.57;2.40;;;2.50;99.90;;;;;;5053913;28;20116;-50
2022/04/10 03:05:14;;;;;;;14.43;2.08;;;2.50;99.90;;;;;;5068642;28;20047;-53
2022/04/10 03:07:40;;;;;;;8.98;2.20;;;2.50;99.90;;;;;;5073557;28;20321;-54
2022/04/10 03:10:06;;;;;;;15.02;2.13;;;2.70;99.90;;;;;;5072316;28;20076;-54
2022/04/10 03:12:32;;;;;;;12.35;1.80;;;2.70;99.90;;;;;;5073700;28;20054;-51
2022/04/10 03:14:58;;;;;;;7.75;1.42;;;2.60;99.90;;;;;;5073583;28;20037;-52
2022/04/10 03:17:23;;;;;;;6.13;1.60;;;2.70;99.90;;;;;;5073420;28;20068;-51
2022/04/10 03:19:49;;;;;;;8.23;1.67;;;2.80;99.90;;;;;;5072224;28;20037;-51
2022/04/10 03:22:15;;;;;;;11.07;1.50;;;2.80;99.90;;;;;;5073593;28;20059;-51
2022/04/10 03:24:40;;;;;;;8.32;2.35;;;2.60;99.90;;;;;;5056378;28;20052;-51
2022/04/10 03:27:06;;;;;;;12.18;2.42;;;2.70;99.90;;;;;;5053177;28;20056;-51
2022/04/10 03:29:32;;;;;;;7.43;1.75;;;2.70;99.90;;;;;;5053304;28;20052;-51
2022/04/10 03:31:57;;;;;;;6.50;1.40;;;2.70;99.90;;;;;;5068654;28;20397;-50
2022/04/10 03:34:23;;;;;;;9.88;1.63;;;2.70;99.90;;;;;;5053097;28;20045;-55
2022/04/10 03:36:49;;;;;;;9.32;1.50;;;2.70;99.90;;;;;;5052974;28;20048;-54
2022/04/10 03:39:15;;;;;;;12.23;2.10;;;2.80;99.90;;;;;;5053187;28;20520;-51
2022/04/10 03:41:41;;;;;;;5.65;1.13;;;2.80;99.90;;;;;;5053129;28;20044;-51
2022/04/10 03:44:06;;;;;;;7.40;1.42;;;2.90;99.90;;;;;;5052981;28;20073;-51
2022/04/10 03:46:32;;;;;;;7.47;1.50;;;2.80;99.90;;;;;;5052897;28;20044;-54
2022/04/10 03:48:58;;;;;;;9.02;2.10;;;2.80;99.90;;;;;;5052803;28;20036;-52
2022/04/10 03:51:24;;;;;;;7.55;1.42;;;2.80;99.90;;;;;;5052739;28;20041;-53
2022/04/10 03:53:49;;;;;;;7.82;1.40;;;2.70;99.90;;;;;;5052665;28;20048;-53
2022/04/10 03:56:15;;;;;;;11.57;1.70;;;2.70;99.90;;;;;;5052858;28;20052;-50
2022/04/10 03:58:41;;;;;;;4.88;1.10;;;2.50;99.90;;;;;;5052568;28;20052;-51
2022/04/10 04:01:07;;;;;;;8.95;1.95;;;2.70;99.90;;;;;;5052671;28;20136;-51
2022/04/10 04:03:35;;;;;;;7.40;1.55;;;2.60;99.90;;;;;;5053851;28;20405;-51
2022/04/10 04:06:01;;;;;;;11.55;1.48;;;2.50;99.90;;;;;;5072390;28;20036;-49
2022/04/10 04:08:26;;;;;;;6.63;1.50;;;2.40;99.90;;;;;;5071347;28;20400;-49
2022/04/10 04:10:52;;;;;;;6.70;1.92;;;2.40;99.90;;;;;;5072525;28;20463;-49
2022/04/10 04:13:18;;;;;;;6.85;1.40;;;2.40;99.90;;;;;;5072639;28;20083;-50
2022/04/10 04:15:43;;;;;;;8.30;1.50;;;2.40;99.90;;;;;;5072406;28;20052;-50
2022/04/10 04:18:09;;;;;;;8.85;1.65;;;2.50;99.90;;;;;;5071005;28;20123;-50
2022/04/10 04:20:35;;;;;;;7.55;1.48;;;2.50;99.90;;;;;;5072149;28;20090;-53
2022/04/10 04:23:00;;;;;;;11.70;1.75;;;2.60;99.90;;;;;;5067644;28;20044;-52
2022/04/10 04:25:26;;;;;;;11.73;1.80;;;2.50;99.90;;;;;;5052141;28;20041;-51
2022/04/10 04:27:53;;;;;;;5.25;1.30;;;2.60;99.90;;;;;;5052040;28;20053;-52
2022/04/10 04:30:19;;;;;;;10.90;1.73;;;2.40;99.90;;;;;;5052122;28;20115;-52
2022/04/10 04:32:44;;;;;;;6.40;1.55;;;2.50;99.90;;;;;;5052158;28;20048;-50
2022/04/10 04:35:12;;;;;;;8.20;1.98;;;2.50;99.90;;;;;;5052200;28;20112;-53
2022/04/10 04:37:40;;;;;;;9.65;1.60;;;2.40;99.90;;;;;;5052273;28;20111;-51
2022/04/10 04:40:09;;;;;;;8.30;1.42;;;2.30;99.90;;;;;;5067126;28;20048;-54
2022/04/10 04:42:35;;;;;;;9.95;2.22;;;2.40;99.90;;;;;;5050458;28;20080;-51
2022/04/10 04:45:01;;;;;;;6.82;1.63;;;2.30;99.90;;;;;;5050551;28;20080;-54
2022/04/10 04:47:27;;;;;;;11.63;1.50;;;2.20;99.90;;;;;;5050620;28;20041;-54
2022/04/10 04:49:54;;;;;;;9.45;1.60;;;2.20;99.90;;;;;;5049541;28;20037;-51
2022/04/10 04:52:20;;;;;;;17.45;3.10;;;2.20;99.90;;;;;;5039473;28;20110;-52
2022/04/10 04:54:46;;;;;;;9.05;1.75;;;2.20;99.90;;;;;;5044527;28;20041;-53
2022/04/10 04:57:11;;;;;;;8.15;1.75;;;2.20;99.90;;;;;;5030662;28;20049;-51
2022/04/10 04:59:37;;;;;;;6.93;1.55;;;2.10;99.90;;;;;;5041043;28;20048;-51
2022/04/10 05:02:03;;;;;;;7.30;1.63;;;2.10;99.90;;;;;;5050473;28;20036;-54
2022/04/10 05:04:28;;;;;;;10.13;1.60;;;2.10;99.90;;;;;;5050221;28;20037;-52
2022/04/10 05:06:54;;;;;;;9.27;1.65;;;2.00;99.90;;;;;;5065625;28;20044;-53
2022/04/10 05:09:19;;;;;;;8.18;1.80;;;2.10;99.90;;;;;;5048755;28;20038;-52
2022/04/10 05:11:45;;;;;;;12.60;1.98;;;2.10;99.90;;;;;;5034389;28;20042;-54
2022/04/10 05:14:11;;;;;;;11.48;1.75;;;2.20;99.90;;;;;;5034260;28;20041;-51
2022/04/10 05:16:36;;;;;;;7.25;2.60;;;2.20;99.90;;;;;;5034257;28;20045;-51
2022/04/10 05:19:02;;;;;;;7.18;1.65;;;2.20;99.90;;;;;;5034219;28;20049;-54
2022/04/10 05:21:28;;;;;;;7.38;1.48;;;2.10;99.90;;;;;;5034407;28;20052;-53
2022/04/10 05:23:53;;;;;;;10.05;1.52;;;2.10;99.90;;;;;;5044775;28;20396;-53
2022/04/10 05:26:19;;;;;;;8.88;1.88;;;2.20;99.90;;;;;;5034541;28;20033;-51
2022/04/10 05:28:45;;;;;;;12.82;3.45;;;2.10;99.90;;;;;;5033826;28;20421;-52
2022/04/10 05:31:10;;;;;;;8.95;1.88;;;2.20;99.90;;;;;;5034104;28;20469;-54
2022/04/10 05:33:36;;;;;;;8.35;1.80;;;2.10;99.90;;;;;;5033937;28;20038;-54
2022/04/10 05:36:02;;;;;;;10.25;1.60;;;2.20;99.90;;;;;;5034777;28;20045;-54
2022/04/10 05:38:28;;;;;;;11.57;1.70;;;2.30;99.90;;;;;;5033938;28;20473;-53
2022/04/10 05:40:54;;;;;;;11.65;2.10;;;2.20;99.90;;;;;;5034165;28;20190;-52
2022/04/10 05:43:21;;;;;;;8.45;1.60;;;2.40;99.90;;;;;;5034091;28;20076;-54
2022/04/10 05:45:47;;;;;;;7.65;1.45;;;2.30;99.90;;;;;;5034233;28;20046;-51
2022/04/10 05:48:13;;;;;;;26.85;3.80;;;2.50;99.90;;;;;;5033726;28;20446;-50
2022/04/10 05:50:39;;;;;;;13.52;1.65;;;2.70;99.90;;;;;;5034043;28;20084;-50
2022/04/10 05:53:04;;;;;;;10.98;1.98;;;2.70;99.90;;;;;;5061574;28;20044;-53
2022/04/10 05:55:30;;;;;;;13.05;1.80;;;2.70;99.90;;;;;;5073666;28;20070;-54
2022/04/10 05:57:57;;;;;;;9.85;2.00;;;2.80;99.90;;;;;;5073604;28;20040;-51
2022/04/10 06:00:24;;;;;;;12.85;1.98;;;2.80;99.90;;;;;;5073327;28;20123;-54
2022/04/10 06:02:50;;;;;;;10.20;2.25;;;2.90;99.90;;;;;;5073409;28;20049;-54
2022/04/10 06:05:17;;;;;;;8.13;1.67;;;2.90;99.90;;;;;;5073599;28;20048;-54
2022/04/10 06:07:43;;;;;;;9.77;1.45;;;3.00;99.90;;;;;;5072251;28;20112;-54
2022/04/10 06:10:09;;;;;;;14.73;2.10;;;3.10;99.90;;;;;;5073253;28;20465;-53
2022/04/10 06:12:34;;;;;;;19.83;2.70;;;3.00;99.90;;;;;;5073352;28;20029;-54
2022/04/10 06:15:00;;;;;;;9.10;1.88;;;3.10;99.90;;;;;;5073151;28;20177;-53
2022/04/10 06:17:26;;;;;;;11.38;2.10;;;3.30;99.90;;;;;;5071698;28;20036;-51
2022/04/10 06:19:52;;;;;;;6.38;1.70;;;3.30;99.90;;;;;;5071926;28;20533;-51
2022/04/10 06:22:18;;;;;;;10.57;1.90;;;3.30;99.90;;;;;;5073199;28;20051;-51
2022/04/10 06:24:43;;;;;;;11.30;2.20;;;3.30;99.90;;;;;;5054328;28;20048;-53
2022/04/10 06:27:09;;;;;;;10.10;1.90;;;3.20;99.90;;;;;;5038792;28;20064;-56
2022/04/10 06:29:35;;;;;;;11.55;2.33;;;3.10;99.90;;;;;;5032876;28;20138;-57
2022/04/10 06:32:01;;;;;;;10.93;2.55;;;3.00;99.90;;;;;;5033108;28;20656;-56
2022/04/10 06:34:27;;;;;;;8.57;1.60;;;3.20;99.90;;;;;;5033067;28;20045;-55
2022/04/10 06:36:53;;;;;;;9.85;1.95;;;3.20;99.90;;;;;;5033038;28;20382;-54
2022/04/10 06:39:18;;;;;;;11.73;2.65;;;3.20;99.90;;;;;;5039904;28;20044;-54
2022/04/10 06:41:44;;;;;;;10.80;1.98;;;3.20;99.90;;;;;;5044267;28;20370;-51
2022/04/10 06:44:10;;;;;;;9.20;1.90;;;3.20;99.90;;;;;;5044872;28;20135;-53
2022/04/10 06:46:36;;;;;;;7.97;2.13;;;3.30;99.90;;;;;;5047680;28;20037;-54
2022/04/10 06:49:02;;;;;;;9.18;2.35;;;3.40;99.90;;;;;;5052534;28;20076;-49
2022/04/10 06:51:27;;;;;;;12.75;3.13;;;3.50;99.90;;;;;;5053503;28;20037;-50
2022/04/10 06:53:53;;;;;;;8.48;1.80;;;3.60;99.90;;;;;;5072554;28;20097;-52
2022/04/10 06:56:19;;;;;;;7.85;2.08;;;3.70;99.90;;;;;;5072536;28;20060;-52
2022/04/10 06:58:45;;;;;;;12.57;2.47;;;3.70;99.90;;;;;;5072834;28;20041;-50
2022/04/10 07:01:11;;;;;;;10.35;1.60;;;4.00;99.90;;;;;;5072670;28;20109;-51
2022/04/10 07:03:37;;;;;;;9.65;1.67;;;4.10;99.90;;;;;;5072198;28;20436;-54
2022/04/10 07:06:02;;;;;;;10.10;3.13;;;4.20;99.90;;;;;;5072467;28;20047;-50
2022/04/10 07:08:29;;;;;;;10.50;1.88;;;4.20;99.90;;;;;;5072645;28;20329;-53
2022/04/10 07:10:54;;;;;;;16.42;2.90;;;4.40;99.90;;;;;;5072263;28;20041;-54
2022/04/10 07:13:21;;;;;;;8.23;2.10;;;4.50;99.90;;;;;;5072632;28;20037;-53
2022/04/10 07:15:50;;;;;;;9.90;1.92;;;4.50;99.90;;;;;;5072072;28;20173;-52
2022/04/10 07:18:16;;;;;;;10.57;1.77;;;4.90;99.90;;;;;;5072061;28;20071;-53
2022/04/10 07:20:43;;;;;;;8.85;3.33;;;4.90;99.90;;;;;;5072048;28;20071;-54
2022/04/10 07:25:53;;;;;;;11.80;1.95;;;5.00;99.90;;;;;;5051799;28;20099;-53
2022/04/10 07:28:20;;;;;;;8.52;2.58;;;5.00;99.90;;;;;;5051706;28;20052;-52
2022/04/10 07:30:46;;;;;;;7.68;1.67;;;5.10;99.90;;;;;;5067034;28;20445;-51
2022/04/10 07:33:12;;;;;;;9.40;2.15;;;5.10;99.90;;;;;;5051945;28;20064;-50
2022/04/10 07:35:41;;;;;;;10.98;1.60;;;5.20;99.90;;;;;;5051807;28;20489;-51
2022/04/10 07:38:07;;;;;;;9.25;1.85;;;5.40;99.90;;;;;;5051796;28;20078;-50
2022/04/10 07:40:40;;;;;;;9.30;2.13;;;5.40;99.90;;;;;;5051484;28;20090;-51
2022/04/10 07:43:06;;;;;;;7.63;1.77;;;5.50;99.90;;;;;;5051693;28;20036;-51
2022/04/10 07:48:16;;;;;;;7.35;1.50;;;5.80;99.90;;;;;;5051561;28;20127;-52
2022/04/10 07:50:42;;;;;;;11.68;1.67;;;5.90;99.90;;;;;;5051407;28;20113;-50
2022/04/10 07:53:08;;;;;;;9.00;3.45;;;5.90;99.90;;;;;;5066141;28;20115;-53
2022/04/10 07:55:34;;;;;;;6.97;1.83;;;6.00;99.90;;;;;;5071430;28;20488;-51
2022/04/10 07:58:00;;;;;;;7.88;1.40;;;6.00;99.90;;;;;;5071449;28;20044;-50
2022/04/10 08:00:26;;;;;;;9.98;1.67;;;6.10;99.90;;;;;;5071325;28;20480;-51
2022/04/10 08:02:52;;;;;;;14.43;2.22;;;6.20;99.90;;;;;;5069925;28;20462;-53
2022/04/10 08:05:19;;;;;;;5.88;1.80;;;6.20;99.90;;;;;;5071027;28;20040;-53
2022/04/10 08:07:48;;;;;;;9.40;1.85;;;6.30;99.90;;;;;;5069655;28;20059;-53
2022/04/10 08:10:15;;;;;;;13.27;2.97;;;6.60;99.90;;;;;;5069920;28;20079;-54
2022/04/10 08:12:41;;;;;;;8.95;1.80;;;6.70;99.90;;;;;;5071060;28;20040;-54
2022/04/10 08:15:08;;;;;;;9.75;1.70;;;6.80;99.90;;;;;;5070987;28;20469;-54
2022/04/10 08:17:34;;;;;;;9.70;1.85;;;6.50;99.90;;;;;;5070836;28;20064;-52
2022/04/10 08:20:04;;;;;;;12.18;2.13;;;6.40;99.90;;;;;;5071394;28;20044;-52
2022/04/10 08:22:33;;;;;;;9.45;1.85;;;6.60;99.90;;;;;;5071066;28;20051;-51
2022/04/10 08:25:07;;;;;;;6.03;1.52;;;6.50;99.90;;;;;;5051229;28;20315;-52
2022/04/10 08:27:33;;;;;;;10.20;1.95;;;6.40;99.90;;;;;;5050794;28;20063;-52
2022/04/10 08:29:59;;;;;;;14.80;2.15;;;6.50;99.90;;;;;;5050701;28;20521;-52
2022/04/10 08:32:25;;;;;;;9.75;2.72;;;6.70;99.90;;;;;;5050819;28;20040;-51
2022/04/10 08:34:51;;;;;;;9.05;1.88;;;6.70;99.90;;;;;;5066092;28;20352;-52
2022/04/10 08:37:17;;;;;;;11.70;2.08;;;6.90;99.90;;;;;;5050682;28;20116;-51
2022/04/10 08:39:42;;;;;;;10.32;1.70;;;7.00;99.90;;;;;;5050635;28;20047;-50
2022/04/10 08:42:08;;;;;;;10.30;2.00;;;7.20;99.90;;;;;;5050018;28;20525;-52
2022/04/10 08:44:34;;;;;;;12.35;2.20;;;7.10;99.90;;;;;;5050038;28;20120;-50
2022/04/10 08:47:01;;;;;;;11.48;2.03;;;7.00;99.90;;;;;;5050709;28;20048;-54
2022/04/10 08:49:34;;;;;;;11.20;3.03;;;7.00;99.90;;;;;;5049380;28;20048;-54
2022/04/10 08:51:59;;;;;;;9.30;1.73;;;6.90;99.90;;;;;;5056048;28;20028;-54
2022/04/10 08:54:27;;;;;;;7.85;1.48;;;7.00;99.90;;;;;;5070704;28;20106;-53
2022/04/10 08:56:54;;;;;;;5.43;1.20;;;6.90;99.90;;;;;;5070876;28;20076;-51
2022/04/10 08:59:20;;;;;;;8.38;1.67;;;6.90;99.90;;;;;;5069292;28;20037;-51
2022/04/10 09:01:51;;;;;;;8.65;1.70;;;6.90;99.90;;;;;;5070624;28;20045;-51
2022/04/10 09:04:17;;;;;;;6.20;1.10;;;6.90;99.90;;;;;;5070702;28;20457;-54
2022/04/10 09:07:00;;;;;;;12.25;1.63;;;7.10;99.90;;;;;;5070673;28;20040;-50
2022/04/10 09:09:26;;;;;;;7.00;1.58;;;7.00;99.90;;;;;;5069156;28;20048;-53
2022/04/10 09:11:55;;;;;;;11.38;2.25;;;7.20;99.90;;;;;;5070266;28;20581;-53
2022/04/10 09:14:26;;;;;;;7.95;2.33;;;7.30;99.90;;;;;;5070543;28;20041;-51
2022/04/10 09:17:13;;;;;;;10.35;2.00;;;7.20;99.90;;;;;;5070563;28;20047;-53
2022/04/10 09:19:51;;;;;;;11.13;2.00;;;7.30;99.90;;;;;;5070360;28;20048;-53
2022/04/10 09:22:36;;;;;;;9.70;1.80;;;7.50;99.90;;;;;;5070351;28;20117;-55
2022/04/10 09:25:04;;;;;;;12.32;2.60;;;7.60;99.90;;;;;;5030316;28;20112;-50
2022/04/10 09:27:32;;;;;;;8.05;1.60;;;7.70;99.90;;;;;;5038887;28;20089;-54
2022/04/10 09:29:58;;;;;;;8.43;1.95;;;7.80;99.90;;;;;;5035937;28;20555;-53
2022/04/10 09:32:40;;;;;;;8.13;1.77;;;7.70;99.90;;;;;;5048870;28;20033;-51
2022/04/10 09:35:06;;;;;;;8.80;2.08;;;7.70;99.90;;;;;;5050385;28;20037;-54
2022/04/10 09:37:51;;;;;;;9.90;1.63;;;7.50;99.90;;;;;;5065634;28;20044;-51
2022/04/10 09:40:30;;;;;;;15.00;1.70;;;7.60;99.90;;;;;;5049902;28;20044;-54
2022/04/10 09:43:05;;;;;;;8.13;1.52;;;7.70;99.90;;;;;;5049709;28;20041;-52
2022/04/10 09:45:42;;;;;;;9.57;2.03;;;7.90;99.90;;;;;;5049776;28;20048;-54
2022/04/10 09:48:27;;;;;;;13.70;2.22;;;7.60;99.90;;;;;;5049037;28;20040;-52
2022/04/10 09:50:56;;;;;;;6.13;1.40;;;7.30;99.90;;;;;;5049867;28;20129;-54
2022/04/10 09:53:23;;;;;;;7.40;1.35;;;7.20;99.90;;;;;;5065656;28;20493;-51
2022/04/10 09:56:03;;;;;;;7.95;1.73;;;7.40;99.90;;;;;;5053227;28;20523;-53
2022/04/10 09:58:30;;;;;;;8.13;1.67;;;7.60;99.90;;;;;;5053907;28;20045;-54
2022/04/10 10:00:57;;;;;;;10.75;1.90;;;7.70;99.90;;;;;;5053655;28;20049;-52
2022/04/10 10:03:30;;;;;;;9.85;2.13;;;7.70;99.90;;;;;;5053662;28;20116;-52
2022/04/10 10:05:58;;;;;;;10.02;1.48;;;7.80;99.90;;;;;;5053208;28;20059;-55
2022/04/10 10:08:25;;;;;;;8.20;1.80;;;7.80;99.90;;;;;;5053429;28;20039;-53
2022/04/10 10:10:51;;;;;;;10.27;1.95;;;7.80;99.90;;;;;;5052825;28;20040;-53
2022/04/10 10:13:17;;;;;;;9.35;1.90;;;7.90;99.90;;;;;;5068803;28;20051;-52
2022/04/10 10:15:44;;;;;;;7.53;1.63;;;8.10;99.90;;;;;;5053356;28;20049;-53
2022/04/10 10:18:13;;;;;;;9.30;1.70;;;7.90;99.90;;;;;;5053031;28;20059;-54
2022/04/10 10:20:42;;;;;;;7.57;1.77;;;8.00;99.90;;;;;;5052933;28;20036;-51
2022/04/10 10:23:10;;;;;;;12.77;2.15;;;8.00;99.90;;;;;;5052822;28;20116;-52
2022/04/10 10:25:39;;;;;;;9.23;1.83;;;8.00;99.90;;;;;;5053315;28;20052;-55
2022/04/10 10:28:43;;;;;;;8.27;1.75;;;7.90;99.90;;;;;;5053025;28;20136;-52
2022/04/10 10:31:36;;;;;;;8.30;1.83;;;8.20;99.90;;;;;;5052762;28;20056;-51
2022/04/10 10:34:05;;;;;;;9.60;1.60;;;8.40;99.90;;;;;;5053229;28;20129;-52
2022/04/10 10:36:31;;;;;;;11.38;2.50;;;8.30;99.90;;;;;;5052864;28;20056;-51
2022/04/10 10:38:58;;;;;;;13.80;2.58;;;8.20;99.90;;;;;;5053057;28;20498;-53
2022/04/10 10:41:23;;;;;;;10.50;1.80;;;8.30;99.90;;;;;;5052766;28;20136;-54
2022/04/10 10:43:50;;;;;;;6.28;1.30;;;8.40;99.90;;;;;;5052494;28;20072;-54
2022/04/10 10:46:20;;;;;;;7.28;1.52;;;8.40;99.90;;;;;;5052302;28;20645;-53
2022/04/10 10:48:47;;;;;;;11.35;1.65;;;8.20;99.90;;;;;;5052821;28;20052;-50
2022/04/10 10:51:12;;;;;;;8.88;1.80;;;8.20;99.90;;;;;;5053806;28;20137;-50
2022/04/10 10:53:55;;;;;;;5.15;1.23;;;8.40;99.90;;;;;;5072765;28;20502;-53
2022/04/10 10:56:26;;;;;;;5.60;1.42;;;8.60;99.90;;;;;;5073588;28;20503;-50
2022/04/10 10:58:55;;;;;;;8.43;1.58;;;8.80;99.90;;;;;;5074056;28;20072;-52
2022/04/10 11:01:28;;;;;;;7.43;1.48;;;9.00;99.90;;;;;;5073642;28;20040;-50
2022/04/10 11:04:01;;;;;;;8.63;1.40;;;8.80;99.90;;;;;;5073442;28;20032;-50
2022/04/10 11:06:33;;;;;;;8.63;1.55;;;8.60;99.90;;;;;;5072880;28;20041;-53
2022/04/10 11:09:21;;;;;;;9.33;1.80;;;8.90;99.90;;;;;;5073672;28;20392;-50
2022/04/10 11:11:48;;;;;;;5.82;1.33;;;8.80;99.90;;;;;;5072393;28;20370;-51
2022/04/10 11:14:34;;;;;;;5.30;0.98;;;8.70;99.90;;;;;;5072312;28;20040;-50
2022/04/10 11:17:20;;;;;;;7.82;1.80;;;8.50;99.90;;;;;;5073385;28;20093;-50
2022/04/10 11:19:56;;;;;;;8.73;2.40;;;8.80;99.90;;;;;;5061033;28;20041;-50
2022/04/10 11:22:25;;;;;;;7.18;1.58;;;8.40;99.90;;;;;;5050482;28;20551;-51
2022/04/10 11:24:58;;;;;;;5.82;1.30;;;8.40;99.90;;;;;;5052690;28;20084;-51
2022/04/10 11:27:48;;;;;;;5.38;1.20;;;8.70;99.90;;;;;;5052978;28;20444;-51
2022/04/10 11:30:19;;;;;;;8.48;1.85;;;8.90;99.90;;;;;;5053340;28;20604;-52
2022/04/10 11:33:00;;;;;;;6.60;1.10;;;8.50;99.90;;;;;;5053211;28;20402;-53
2022/04/10 11:35:31;;;;;;;8.85;1.30;;;8.60;99.90;;;;;;5053487;28;20124;-50
2022/04/10 11:38:02;;;;;;;10.45;1.50;;;8.90;99.90;;;;;;5053466;28;20491;-50
2022/04/10 11:40:29;;;;;;;7.60;1.60;;;9.20;99.90;;;;;;5052930;28;20512;-50
2022/04/10 11:42:57;;;;;;;7.15;1.30;;;8.90;99.90;;;;;;5052802;28;20493;-50
2022/04/10 11:45:24;;;;;;;7.75;1.58;;;8.60;99.90;;;;;;5053148;28;20388;-50
2022/04/10 11:47:50;;;;;;;7.53;1.80;;;8.60;99.90;;;;;;5053068;28;20389;-50
2022/04/10 11:50:18;;;;;;;7.05;1.50;;;9.00;99.90;;;;;;5052961;28;20036;-50
2022/04/10 11:53:07;;;;;;;6.78;1.50;;;8.90;99.90;;;;;;5063241;28;20056;-50
2022/04/10 11:55:41;;;;;;;8.63;1.55;;;8.80;99.90;;;;;;5072439;28;20036;-52
2022/04/10 11:58:30;;;;;;;8.30;1.73;;;9.10;99.90;;;;;;5072818;28;20076;-52
2022/04/10 12:01:00;;;;;;;10.90;1.60;;;9.50;99.90;;;;;;5072067;28;20052;-51
2022/04/10 12:03:33;;;;;;;8.27;1.67;;;9.70;99.90;;;;;;5071652;28;20127;-54
2022/04/10 12:05:59;;;;;;;8.32;1.50;;;9.00;99.90;;;;;;5072530;28;20044;-53
2022/04/10 12:08:25;;;;;;;10.65;2.67;;;9.00;99.90;;;;;;5072518;28;20052;-53
2022/04/10 12:10:58;;;;;;;9.48;1.83;;;9.20;99.90;;;;;;5071158;28;20055;-51
2022/04/10 12:13:37;;;;;;;10.70;2.15;;;9.10;99.90;;;;;;5054481;28;20047;-50
2022/04/10 12:16:11;;;;;;;5.57;1.70;;;8.90;99.90;;;;;;5072554;28;20044;-50
2022/04/10 12:18:48;;;;;;;9.25;1.90;;;9.50;99.90;;;;;;5071732;28;20045;-50
2022/04/10 12:21:14;;;;;;;7.50;1.90;;;9.50;99.90;;;;;;5072421;28;20036;-50
2022/04/10 12:23:40;;;;;;;11.77;1.88;;;9.20;99.90;;;;;;5063299;28;20041;-50
2022/04/10 12:26:06;;;;;;;6.38;2.40;;;9.10;99.90;;;;;;5051546;28;20136;-51
2022/04/10 12:28:32;;;;;;;9.95;1.95;;;8.80;99.90;;;;;;5067556;28;20053;-51
2022/04/10 12:31:03;;;;;;;8.40;1.50;;;8.90;99.90;;;;;;5052178;28;20048;-54
2022/04/10 12:33:29;;;;;;;6.63;1.27;;;9.40;99.90;;;;;;5051687;28;20040;-52
2022/04/10 12:35:55;;;;;;;9.23;1.55;;;9.10;99.90;;;;;;5051648;28;20123;-50
2022/04/10 12:38:26;;;;;;;7.85;1.60;;;9.10;99.90;;;;;;5051817;28;20082;-54
2022/04/10 12:41:05;;;;;;;6.68;1.52;;;9.40;99.90;;;;;;5050738;28;20045;-54
2022/04/10 12:43:31;;;;;;;7.57;1.48;;;9.50;99.90;;;;;;5052165;28;20068;-50
2022/04/10 12:46:09;;;;;;;6.05;1.45;;;9.70;99.90;;;;;;5051555;28;20072;-52
2022/04/10 12:48:34;;;;;;;5.40;1.02;;;9.80;99.90;;;;;;5051799;28;20086;-53
2022/04/10 12:51:07;;;;;;;5.57;1.52;;;9.80;99.90;;;;;;5051753;28;20045;-52
2022/04/10 12:53:34;;;;;;;7.97;1.40;;;9.90;99.90;;;;;;5070125;28;20033;-51
2022/04/10 12:55:59;;;;;;;17.27;2.55;;;9.80;99.90;;;;;;5071630;28;20051;-50
2022/04/10 12:58:29;;;;;;;8.48;1.60;;;9.40;99.90;;;;;;5071544;28;20115;-51
2022/04/10 13:00:55;;;;;;;9.05;1.35;;;9.50;99.90;;;;;;5070476;28;20052;-51
2022/04/10 13:03:25;;;;;;;7.45;1.38;;;9.50;99.90;;;;;;5071491;28;20037;-51
2022/04/10 13:06:05;;;;;;;8.10;1.70;;;9.30;99.90;;;;;;5071253;28;20496;-50